sensor_id;sensor_type;location;lat;lon;timestamp;temperature;humidity
44537;DHT22;30245;51.966;6.292;2023-06-22T00:00:41;27.20;47.60
44537;DHT22;30245;51.966;6.292;2023-06-22T00:03:07;27.20;47.70
44537;DHT22;30245;51.966;6.292;2023-06-22T00:05:33;27.10;47.60
44537;DHT22;30245;51.966;6.292;2023-06-22T00:08:04;27.10;47.70
44537;DHT22;30245;51.966;6.292;2023-06-22T00:10:32;27.10;47.80
44537;DHT22;30245;51.966;6.292;2023-06-22T00:12:58;27.00;47.80
44537;DHT22;30245;51.966;6.292;2023-06-22T00:15:24;27.00;47.90
44537;DHT22;30245;51.966;6.292;2023-06-22T00:17:50;27.00;48.00
44537;DHT22;30245;51.966;6.292;2023-06-22T00:20:16;27.00;48.00
44537;DHT22;30245;51.966;6.292;2023-06-22T00:22:44;27.00;48.00
44537;DHT22;30245;51.966;6.292;2023-06-22T00:25:11;27.00;48.10
44537;DHT22;30245;51.966;6.292;2023-06-22T00:27:37;27.00;48.10
44537;DHT22;30245;51.966;6.292;2023-06-22T00:30:03;26.90;48.00
44537;DHT22;30245;51.966;6.292;2023-06-22T00:32:29;26.90;48.00
44537;DHT22;30245;51.966;6.292;2023-06-22T00:34:55;26.90;48.10
44537;DHT22;30245;51.966;6.292;2023-06-22T00:37:20;26.80;48.10
44537;DHT22;30245;51.966;6.292;2023-06-22T00:39:51;26.80;48.20
44537;DHT22;30245;51.966;6.292;2023-06-22T00:42:17;26.80;48.30
44537;DHT22;30245;51.966;6.292;2023-06-22T00:44:43;26.70;48.30
44537;DHT22;30245;51.966;6.292;2023-06-22T00:47:11;26.70;48.30
44537;DHT22;30245;51.966;6.292;2023-06-22T00:49:39;26.70;48.40
44537;DHT22;30245;51.966;6.292;2023-06-22T00:52:06;26.70;48.40
44537;DHT22;30245;51.966;6.292;2023-06-22T00:54:43;26.70;48.40
44537;DHT22;30245;51.966;6.292;2023-06-22T00:57:15;26.70;48.40
44537;DHT22;30245;51.966;6.292;2023-06-22T00:59:48;26.70;48.50
44537;DHT22;30245;51.966;6.292;2023-06-22T01:02:14;26.70;48.50
44537;DHT22;30245;51.966;6.292;2023-06-22T01:04:40;26.60;48.40
44537;DHT22;30245;51.966;6.292;2023-06-22T01:10:04;26.60;48.60
44537;DHT22;30245;51.966;6.292;2023-06-22T01:12:38;26.60;48.70
44537;DHT22;30245;51.966;6.292;2023-06-22T01:15:10;26.60;48.70
44537;DHT22;30245;51.966;6.292;2023-06-22T01:17:40;26.50;48.70
44537;DHT22;30245;51.966;6.292;2023-06-22T01:20:09;26.50;48.70
44537;DHT22;30245;51.966;6.292;2023-06-22T01:25:36;26.50;48.80
44537;DHT22;30245;51.966;6.292;2023-06-22T01:28:41;26.50;48.80
44537;DHT22;30245;51.966;6.292;2023-06-22T01:31:08;26.50;49.20
44537;DHT22;30245;51.966;6.292;2023-06-22T01:33:39;26.40;48.80
44537;DHT22;30245;51.966;6.292;2023-06-22T01:36:06;26.40;48.90
44537;DHT22;30245;51.966;6.292;2023-06-22T01:38:32;26.40;48.90
44537;DHT22;30245;51.966;6.292;2023-06-22T01:40:59;26.40;49.10
44537;DHT22;30245;51.966;6.292;2023-06-22T01:43:27;26.30;49.00
44537;DHT22;30245;51.966;6.292;2023-06-22T01:45:54;26.30;49.10
44537;DHT22;30245;51.966;6.292;2023-06-22T01:48:22;26.30;49.10
44537;DHT22;30245;51.966;6.292;2023-06-22T01:50:48;26.30;49.00
44537;DHT22;30245;51.966;6.292;2023-06-22T01:53:13;26.30;49.10
44537;DHT22;30245;51.966;6.292;2023-06-22T01:55:39;26.30;49.20
44537;DHT22;30245;51.966;6.292;2023-06-22T01:58:05;26.20;49.20
44537;DHT22;30245;51.966;6.292;2023-06-22T02:00:37;26.30;49.30
44537;DHT22;30245;51.966;6.292;2023-06-22T02:03:22;26.20;49.30
44537;DHT22;30245;51.966;6.292;2023-06-22T02:06:08;26.20;49.30
44537;DHT22;30245;51.966;6.292;2023-06-22T02:08:40;26.20;49.30
44537;DHT22;30245;51.966;6.292;2023-06-22T02:11:08;26.20;49.30
44537;DHT22;30245;51.966;6.292;2023-06-22T02:13:34;26.20;49.30
44537;DHT22;30245;51.966;6.292;2023-06-22T02:16:00;26.20;49.30
44537;DHT22;30245;51.966;6.292;2023-06-22T02:18:26;26.20;49.30
44537;DHT22;30245;51.966;6.292;2023-06-22T02:20:52;26.20;49.40
44537;DHT22;30245;51.966;6.292;2023-06-22T02:23:18;26.10;49.40
44537;DHT22;30245;51.966;6.292;2023-06-22T02:25:43;26.10;49.50
44537;DHT22;30245;51.966;6.292;2023-06-22T02:28:10;26.10;49.70
44537;DHT22;30245;51.966;6.292;2023-06-22T02:30:35;26.00;49.70
44537;DHT22;30245;51.966;6.292;2023-06-22T02:33:01;26.00;49.80
44537;DHT22;30245;51.966;6.292;2023-06-22T02:35:30;25.90;49.80
44537;DHT22;30245;51.966;6.292;2023-06-22T02:38:01;25.90;50.00
44537;DHT22;30245;51.966;6.292;2023-06-22T02:40:28;25.90;50.10
44537;DHT22;30245;51.966;6.292;2023-06-22T02:42:55;25.80;50.10
44537;DHT22;30245;51.966;6.292;2023-06-22T02:45:21;25.80;50.10
44537;DHT22;30245;51.966;6.292;2023-06-22T02:47:46;25.80;50.20
44537;DHT22;30245;51.966;6.292;2023-06-22T02:50:13;25.70;50.30
44537;DHT22;30245;51.966;6.292;2023-06-22T02:52:39;25.70;50.30
44537;DHT22;30245;51.966;6.292;2023-06-22T02:55:05;25.70;50.40
44537;DHT22;30245;51.966;6.292;2023-06-22T02:57:32;25.70;50.40
44537;DHT22;30245;51.966;6.292;2023-06-22T02:59:58;25.70;50.40
44537;DHT22;30245;51.966;6.292;2023-06-22T03:02:24;25.70;50.40
44537;DHT22;30245;51.966;6.292;2023-06-22T03:04:51;25.70;50.50
44537;DHT22;30245;51.966;6.292;2023-06-22T03:07:19;25.70;50.50
44537;DHT22;30245;51.966;6.292;2023-06-22T03:09:45;25.70;50.60
44537;DHT22;30245;51.966;6.292;2023-06-22T03:12:10;25.60;50.60
44537;DHT22;30245;51.966;6.292;2023-06-22T03:14:36;25.60;50.60
44537;DHT22;30245;51.966;6.292;2023-06-22T03:17:02;25.60;50.70
44537;DHT22;30245;51.966;6.292;2023-06-22T03:19:29;25.60;50.70
44537;DHT22;30245;51.966;6.292;2023-06-22T03:21:57;25.60;50.80
44537;DHT22;30245;51.966;6.292;2023-06-22T03:24:22;25.60;50.90
44537;DHT22;30245;51.966;6.292;2023-06-22T03:26:48;25.50;50.90
44537;DHT22;30245;51.966;6.292;2023-06-22T03:29:14;25.50;51.00
44537;DHT22;30245;51.966;6.292;2023-06-22T03:31:39;25.50;51.10
44537;DHT22;30245;51.966;6.292;2023-06-22T03:34:05;25.50;51.10
44537;DHT22;30245;51.966;6.292;2023-06-22T03:36:31;25.50;51.20
44537;DHT22;30245;51.966;6.292;2023-06-22T03:38:56;25.40;51.20
44537;DHT22;30245;51.966;6.292;2023-06-22T03:41:22;25.40;51.30
44537;DHT22;30245;51.966;6.292;2023-06-22T03:43:48;25.30;51.30
44537;DHT22;30245;51.966;6.292;2023-06-22T03:46:13;25.40;51.50
44537;DHT22;30245;51.966;6.292;2023-06-22T03:48:39;25.40;51.50
44537;DHT22;30245;51.966;6.292;2023-06-22T03:51:05;25.30;51.50
44537;DHT22;30245;51.966;6.292;2023-06-22T03:53:30;25.30;51.60
44537;DHT22;30245;51.966;6.292;2023-06-22T03:55:56;25.30;51.70
44537;DHT22;30245;51.966;6.292;2023-06-22T03:58:22;25.30;51.80
44537;DHT22;30245;51.966;6.292;2023-06-22T04:00:51;25.30;51.80
44537;DHT22;30245;51.966;6.292;2023-06-22T04:03:18;25.20;52.50
44537;DHT22;30245;51.966;6.292;2023-06-22T04:05:47;25.20;52.00
44537;DHT22;30245;51.966;6.292;2023-06-22T04:08:14;25.10;52.00
44537;DHT22;30245;51.966;6.292;2023-06-22T04:10:40;25.10;52.20
44537;DHT22;30245;51.966;6.292;2023-06-22T04:13:06;25.10;52.30
44537;DHT22;30245;51.966;6.292;2023-06-22T04:15:32;25.10;52.30
44537;DHT22;30245;51.966;6.292;2023-06-22T04:17:58;25.10;52.40
44537;DHT22;30245;51.966;6.292;2023-06-22T04:20:23;25.10;52.50
44537;DHT22;30245;51.966;6.292;2023-06-22T04:22:55;25.10;52.60
44537;DHT22;30245;51.966;6.292;2023-06-22T04:25:21;25.10;52.60
44537;DHT22;30245;51.966;6.292;2023-06-22T04:27:47;25.10;52.60
44537;DHT22;30245;51.966;6.292;2023-06-22T04:30:14;25.10;52.70
44537;DHT22;30245;51.966;6.292;2023-06-22T04:32:43;25.10;52.70
44537;DHT22;30245;51.966;6.292;2023-06-22T04:35:09;25.10;52.80
44537;DHT22;30245;51.966;6.292;2023-06-22T04:37:35;25.10;52.90
44537;DHT22;30245;51.966;6.292;2023-06-22T04:40:01;25.10;53.00
44537;DHT22;30245;51.966;6.292;2023-06-22T04:42:27;25.10;53.10
44537;DHT22;30245;51.966;6.292;2023-06-22T04:44:53;25.10;53.20
44537;DHT22;30245;51.966;6.292;2023-06-22T04:47:18;25.00;53.20
44537;DHT22;30245;51.966;6.292;2023-06-22T04:49:44;25.10;53.40
44537;DHT22;30245;51.966;6.292;2023-06-22T04:52:11;25.00;53.50
44537;DHT22;30245;51.966;6.292;2023-06-22T04:54:38;25.10;53.50
44537;DHT22;30245;51.966;6.292;2023-06-22T04:57:06;25.10;53.50
44537;DHT22;30245;51.966;6.292;2023-06-22T04:59:36;25.10;53.60
44537;DHT22;30245;51.966;6.292;2023-06-22T05:02:04;25.10;53.60
44537;DHT22;30245;51.966;6.292;2023-06-22T05:04:31;25.20;53.70
44537;DHT22;30245;51.966;6.292;2023-06-22T05:07:01;25.20;53.70
44537;DHT22;30245;51.966;6.292;2023-06-22T05:09:27;25.30;53.70
44537;DHT22;30245;51.966;6.292;2023-06-22T05:11:53;25.30;53.70
44537;DHT22;30245;51.966;6.292;2023-06-22T05:14:18;25.30;53.70
44537;DHT22;30245;51.966;6.292;2023-06-22T05:16:45;25.40;53.80
44537;DHT22;30245;51.966;6.292;2023-06-22T05:19:11;25.40;53.80
44537;DHT22;30245;51.966;6.292;2023-06-22T05:21:37;25.40;53.70
44537;DHT22;30245;51.966;6.292;2023-06-22T05:24:03;25.50;53.70
44537;DHT22;30245;51.966;6.292;2023-06-22T05:26:29;25.50;53.70
44537;DHT22;30245;51.966;6.292;2023-06-22T05:28:56;25.60;53.80
44537;DHT22;30245;51.966;6.292;2023-06-22T05:31:22;25.60;53.70
44537;DHT22;30245;51.966;6.292;2023-06-22T05:33:51;25.60;53.70
44537;DHT22;30245;51.966;6.292;2023-06-22T05:36:16;25.60;53.70
44537;DHT22;30245;51.966;6.292;2023-06-22T05:38:42;25.70;53.70
44537;DHT22;30245;51.966;6.292;2023-06-22T05:41:08;25.70;53.70
44537;DHT22;30245;51.966;6.292;2023-06-22T05:43:34;25.70;53.70
44537;DHT22;30245;51.966;6.292;2023-06-22T05:46:01;25.70;53.70
44537;DHT22;30245;51.966;6.292;2023-06-22T05:48:27;25.70;53.70
44537;DHT22;30245;51.966;6.292;2023-06-22T05:50:53;25.70;53.70
44537;DHT22;30245;51.966;6.292;2023-06-22T05:53:19;25.80;53.70
44537;DHT22;30245;51.966;6.292;2023-06-22T05:55:44;25.80;53.70
44537;DHT22;30245;51.966;6.292;2023-06-22T05:58:10;25.90;53.70
44537;DHT22;30245;51.966;6.292;2023-06-22T06:00:36;25.90;53.50
44537;DHT22;30245;51.966;6.292;2023-06-22T06:03:02;26.00;53.50
44537;DHT22;30245;51.966;6.292;2023-06-22T06:05:30;26.00;53.40
44537;DHT22;30245;51.966;6.292;2023-06-22T06:07:56;26.10;53.40
44537;DHT22;30245;51.966;6.292;2023-06-22T06:10:21;26.20;53.40
44537;DHT22;30245;51.966;6.292;2023-06-22T06:12:47;26.20;53.40
44537;DHT22;30245;51.966;6.292;2023-06-22T06:15:13;26.20;53.20
44537;DHT22;30245;51.966;6.292;2023-06-22T06:17:52;26.30;53.20
44537;DHT22;30245;51.966;6.292;2023-06-22T06:20:25;26.40;53.10
44537;DHT22;30245;51.966;6.292;2023-06-22T06:22:51;26.50;53.00
44537;DHT22;30245;51.966;6.292;2023-06-22T06:25:17;26.60;52.80
44537;DHT22;30245;51.966;6.292;2023-06-22T06:27:46;26.70;52.70
44537;DHT22;30245;51.966;6.292;2023-06-22T06:30:13;26.70;52.50
44537;DHT22;30245;51.966;6.292;2023-06-22T06:32:39;26.70;52.60
44537;DHT22;30245;51.966;6.292;2023-06-22T06:35:07;26.80;52.60
44537;DHT22;30245;51.966;6.292;2023-06-22T06:37:36;26.80;52.40
44537;DHT22;30245;51.966;6.292;2023-06-22T06:40:04;26.90;52.30
44537;DHT22;30245;51.966;6.292;2023-06-22T06:42:31;26.90;52.20
44537;DHT22;30245;51.966;6.292;2023-06-22T06:44:56;27.00;52.20
44537;DHT22;30245;51.966;6.292;2023-06-22T06:47:22;27.10;52.10
44537;DHT22;30245;51.966;6.292;2023-06-22T06:49:48;27.10;51.90
44537;DHT22;30245;51.966;6.292;2023-06-22T06:52:13;27.20;51.90
44537;DHT22;30245;51.966;6.292;2023-06-22T06:54:39;27.30;51.80
44537;DHT22;30245;51.966;6.292;2023-06-22T06:57:04;27.30;51.60
44537;DHT22;30245;51.966;6.292;2023-06-22T06:59:30;27.40;51.50
44537;DHT22;30245;51.966;6.292;2023-06-22T07:01:56;27.50;51.40
44537;DHT22;30245;51.966;6.292;2023-06-22T07:04:21;27.60;51.20
44537;DHT22;30245;51.966;6.292;2023-06-22T07:06:47;27.60;51.00
44537;DHT22;30245;51.966;6.292;2023-06-22T07:09:12;27.70;50.80
44537;DHT22;30245;51.966;6.292;2023-06-22T07:11:38;27.80;50.80
44537;DHT22;30245;51.966;6.292;2023-06-22T07:14:04;27.80;50.70
44537;DHT22;30245;51.966;6.292;2023-06-22T07:16:30;27.80;50.60
44537;DHT22;30245;51.966;6.292;2023-06-22T07:18:56;27.90;50.60
44537;DHT22;30245;51.966;6.292;2023-06-22T07:21:22;27.90;50.40
44537;DHT22;30245;51.966;6.292;2023-06-22T07:23:48;27.90;50.40
44537;DHT22;30245;51.966;6.292;2023-06-22T07:26:13;28.10;50.40
44537;DHT22;30245;51.966;6.292;2023-06-22T07:28:39;28.20;50.20
44537;DHT22;30245;51.966;6.292;2023-06-22T07:31:06;28.30;49.90
44537;DHT22;30245;51.966;6.292;2023-06-22T07:33:32;28.40;49.70
44537;DHT22;30245;51.966;6.292;2023-06-22T07:35:57;28.50;49.60
44537;DHT22;30245;51.966;6.292;2023-06-22T07:38:23;28.60;49.40
44537;DHT22;30245;51.966;6.292;2023-06-22T07:40:49;28.70;49.20
44537;DHT22;30245;51.966;6.292;2023-06-22T07:43:16;28.80;49.20
44537;DHT22;30245;51.966;6.292;2023-06-22T07:45:48;28.90;49.20
44537;DHT22;30245;51.966;6.292;2023-06-22T07:48:19;28.90;49.10
44537;DHT22;30245;51.966;6.292;2023-06-22T07:50:45;29.00;49.00
44537;DHT22;30245;51.966;6.292;2023-06-22T07:53:11;29.10;49.00
44537;DHT22;30245;51.966;6.292;2023-06-22T07:55:36;29.20;49.50
44537;DHT22;30245;51.966;6.292;2023-06-22T07:58:02;29.20;48.80
44537;DHT22;30245;51.966;6.292;2023-06-22T08:00:27;29.30;48.80
44537;DHT22;30245;51.966;6.292;2023-06-22T08:02:53;29.20;48.70
44537;DHT22;30245;51.966;6.292;2023-06-22T08:05:19;29.30;48.80
44537;DHT22;30245;51.966;6.292;2023-06-22T08:07:44;29.30;48.70
44537;DHT22;30245;51.966;6.292;2023-06-22T08:10:11;29.30;48.50
44537;DHT22;30245;51.966;6.292;2023-06-22T08:12:37;29.30;48.30
44537;DHT22;30245;51.966;6.292;2023-06-22T08:15:03;29.40;48.30
44537;DHT22;30245;51.966;6.292;2023-06-22T08:17:28;29.30;48.10
44537;DHT22;30245;51.966;6.292;2023-06-22T08:19:54;29.40;48.00
44537;DHT22;30245;51.966;6.292;2023-06-22T08:22:20;29.40;47.90
44537;DHT22;30245;51.966;6.292;2023-06-22T08:24:45;29.50;47.90
44537;DHT22;30245;51.966;6.292;2023-06-22T08:27:11;29.50;47.80
44537;DHT22;30245;51.966;6.292;2023-06-22T08:29:46;29.50;47.70
44537;DHT22;30245;51.966;6.292;2023-06-22T08:32:12;29.60;47.80
44537;DHT22;30245;51.966;6.292;2023-06-22T08:34:38;29.70;47.70
44537;DHT22;30245;51.966;6.292;2023-06-22T08:37:10;29.90;47.40
44537;DHT22;30245;51.966;6.292;2023-06-22T08:39:36;29.90;47.10
44537;DHT22;30245;51.966;6.292;2023-06-22T08:42:02;29.90;47.10
44537;DHT22;30245;51.966;6.292;2023-06-22T08:44:27;29.90;47.00
44537;DHT22;30245;51.966;6.292;2023-06-22T08:46:53;29.90;47.00
44537;DHT22;30245;51.966;6.292;2023-06-22T08:49:18;30.00;46.90
44537;DHT22;30245;51.966;6.292;2023-06-22T08:51:44;30.00;46.60
44537;DHT22;30245;51.966;6.292;2023-06-22T08:54:11;30.10;46.60
44537;DHT22;30245;51.966;6.292;2023-06-22T08:56:36;30.10;46.20
44537;DHT22;30245;51.966;6.292;2023-06-22T08:59:02;30.10;46.30
44537;DHT22;30245;51.966;6.292;2023-06-22T09:01:28;30.20;46.40
44537;DHT22;30245;51.966;6.292;2023-06-22T09:03:53;30.20;46.20
44537;DHT22;30245;51.966;6.292;2023-06-22T09:06:23;30.20;46.10
44537;DHT22;30245;51.966;6.292;2023-06-22T09:08:49;30.30;46.00
44537;DHT22;30245;51.966;6.292;2023-06-22T09:11:15;30.40;45.90
44537;DHT22;30245;51.966;6.292;2023-06-22T09:13:41;30.50;45.60
44537;DHT22;30245;51.966;6.292;2023-06-22T09:16:06;30.70;45.50
44537;DHT22;30245;51.966;6.292;2023-06-22T09:18:33;30.70;45.40
44537;DHT22;30245;51.966;6.292;2023-06-22T09:20:59;30.70;45.20
44537;DHT22;30245;51.966;6.292;2023-06-22T09:23:24;30.70;45.10
44537;DHT22;30245;51.966;6.292;2023-06-22T09:25:50;30.70;45.30
44537;DHT22;30245;51.966;6.292;2023-06-22T09:28:16;30.70;45.30
44537;DHT22;30245;51.966;6.292;2023-06-22T09:30:43;30.80;45.20
44537;DHT22;30245;51.966;6.292;2023-06-22T09:33:09;30.80;44.90
44537;DHT22;30245;51.966;6.292;2023-06-22T09:35:35;30.90;44.80
44537;DHT22;30245;51.966;6.292;2023-06-22T09:38:00;30.80;44.70
44537;DHT22;30245;51.966;6.292;2023-06-22T09:40:26;30.80;44.80
44537;DHT22;30245;51.966;6.292;2023-06-22T09:42:52;30.80;44.80
44537;DHT22;30245;51.966;6.292;2023-06-22T09:45:17;30.90;44.90
44537;DHT22;30245;51.966;6.292;2023-06-22T09:47:43;30.90;44.80
44537;DHT22;30245;51.966;6.292;2023-06-22T09:50:08;30.90;44.60
44537;DHT22;30245;51.966;6.292;2023-06-22T09:52:34;31.00;44.60
44537;DHT22;30245;51.966;6.292;2023-06-22T09:55:00;31.00;44.40
44537;DHT22;30245;51.966;6.292;2023-06-22T09:57:25;31.00;44.30
44537;DHT22;30245;51.966;6.292;2023-06-22T09:59:51;30.90;44.20
44537;DHT22;30245;51.966;6.292;2023-06-22T10:02:17;30.90;44.40
44537;DHT22;30245;51.966;6.292;2023-06-22T10:04:42;30.80;44.50
44537;DHT22;30245;51.966;6.292;2023-06-22T10:07:08;30.80;44.60
44537;DHT22;30245;51.966;6.292;2023-06-22T10:09:33;30.70;44.50
44537;DHT22;30245;51.966;6.292;2023-06-22T10:11:59;30.70;44.60
44537;DHT22;30245;51.966;6.292;2023-06-22T10:14:25;30.70;44.70
44537;DHT22;30245;51.966;6.292;2023-06-22T10:16:52;30.70;44.70
44537;DHT22;30245;51.966;6.292;2023-06-22T10:19:18;30.70;44.60
44537;DHT22;30245;51.966;6.292;2023-06-22T10:21:43;30.80;44.60
44537;DHT22;30245;51.966;6.292;2023-06-22T10:24:09;30.80;44.50
44537;DHT22;30245;51.966;6.292;2023-06-22T10:26:35;30.80;44.50
44537;DHT22;30245;51.966;6.292;2023-06-22T10:29:02;30.70;44.40
44537;DHT22;30245;51.966;6.292;2023-06-22T10:31:29;30.70;44.40
44537;DHT22;30245;51.966;6.292;2023-06-22T10:33:55;30.70;44.40
44537;DHT22;30245;51.966;6.292;2023-06-22T10:36:22;30.70;44.30
44537;DHT22;30245;51.966;6.292;2023-06-22T10:38:48;30.70;44.20
44537;DHT22;30245;51.966;6.292;2023-06-22T10:41:14;30.60;44.10
44537;DHT22;30245;51.966;6.292;2023-06-22T10:43:39;30.70;44.10
44537;DHT22;30245;51.966;6.292;2023-06-22T10:46:06;30.60;44.10
44537;DHT22;30245;51.966;6.292;2023-06-22T10:48:32;30.50;44.10
44537;DHT22;30245;51.966;6.292;2023-06-22T10:50:58;30.50;44.10
44537;DHT22;30245;51.966;6.292;2023-06-22T10:53:23;30.60;44.20
44537;DHT22;30245;51.966;6.292;2023-06-22T10:55:49;30.50;44.20
44537;DHT22;30245;51.966;6.292;2023-06-22T10:58:15;30.50;44.30
44537;DHT22;30245;51.966;6.292;2023-06-22T11:00:40;30.60;44.50
44537;DHT22;30245;51.966;6.292;2023-06-22T11:03:06;30.60;44.50
44537;DHT22;30245;51.966;6.292;2023-06-22T11:05:32;30.60;44.60
44537;DHT22;30245;51.966;6.292;2023-06-22T11:07:57;30.60;44.60
44537;DHT22;30245;51.966;6.292;2023-06-22T11:10:23;30.50;44.70
44537;DHT22;30245;51.966;6.292;2023-06-22T11:12:49;30.60;44.80
44537;DHT22;30245;51.966;6.292;2023-06-22T11:15:14;30.50;44.80
44537;DHT22;30245;51.966;6.292;2023-06-22T11:17:40;30.50;45.00
44537;DHT22;30245;51.966;6.292;2023-06-22T11:20:06;30.50;45.10
44537;DHT22;30245;51.966;6.292;2023-06-22T11:22:37;30.60;45.30
44537;DHT22;30245;51.966;6.292;2023-06-22T11:25:03;30.50;45.40
44537;DHT22;30245;51.966;6.292;2023-06-22T11:27:29;30.50;45.50
44537;DHT22;30245;51.966;6.292;2023-06-22T11:29:55;30.50;45.60
44537;DHT22;30245;51.966;6.292;2023-06-22T11:32:20;30.50;45.80
44537;DHT22;30245;51.966;6.292;2023-06-22T11:34:46;30.40;45.80
44537;DHT22;30245;51.966;6.292;2023-06-22T11:37:12;30.40;45.90
44537;DHT22;30245;51.966;6.292;2023-06-22T11:39:38;30.40;46.10
44537;DHT22;30245;51.966;6.292;2023-06-22T11:42:03;30.40;46.10
44537;DHT22;30245;51.966;6.292;2023-06-22T11:44:29;30.40;46.10
44537;DHT22;30245;51.966;6.292;2023-06-22T11:46:55;30.40;46.10
44537;DHT22;30245;51.966;6.292;2023-06-22T11:49:20;30.30;46.10
44537;DHT22;30245;51.966;6.292;2023-06-22T11:51:46;30.30;46.70
44537;DHT22;30245;51.966;6.292;2023-06-22T11:54:11;30.30;47.30
44537;DHT22;30245;51.966;6.292;2023-06-22T11:56:37;30.30;47.80
44537;DHT22;30245;51.966;6.292;2023-06-22T11:59:02;30.20;47.90
44537;DHT22;30245;51.966;6.292;2023-06-22T12:01:28;30.20;48.50
44537;DHT22;30245;51.966;6.292;2023-06-22T12:03:54;30.10;48.70
44537;DHT22;30245;51.966;6.292;2023-06-22T12:06:19;30.10;49.10
44537;DHT22;30245;51.966;6.292;2023-06-22T12:08:45;30.00;49.40
44537;DHT22;30245;51.966;6.292;2023-06-22T12:11:11;29.90;49.60
44537;DHT22;30245;51.966;6.292;2023-06-22T12:13:36;29.90;50.10
44537;DHT22;30245;51.966;6.292;2023-06-22T12:16:02;29.80;50.50
44537;DHT22;30245;51.966;6.292;2023-06-22T12:18:27;29.70;50.70
44537;DHT22;30245;51.966;6.292;2023-06-22T12:20:53;29.60;51.00
44537;DHT22;30245;51.966;6.292;2023-06-22T12:23:18;29.40;51.40
44537;DHT22;30245;51.966;6.292;2023-06-22T12:25:45;29.40;51.70
44537;DHT22;30245;51.966;6.292;2023-06-22T12:28:11;29.30;51.90
44537;DHT22;30245;51.966;6.292;2023-06-22T12:30:36;29.20;52.20
44537;DHT22;30245;51.966;6.292;2023-06-22T12:33:02;29.10;52.60
44537;DHT22;30245;51.966;6.292;2023-06-22T12:35:28;29.00;52.80
44537;DHT22;30245;51.966;6.292;2023-06-22T12:37:53;28.90;53.20
44537;DHT22;30245;51.966;6.292;2023-06-22T12:40:19;28.80;53.40
44537;DHT22;30245;51.966;6.292;2023-06-22T12:42:45;28.80;53.60
44537;DHT22;30245;51.966;6.292;2023-06-22T12:45:11;28.70;53.80
44537;DHT22;30245;51.966;6.292;2023-06-22T12:47:36;28.50;54.00
44537;DHT22;30245;51.966;6.292;2023-06-22T12:50:02;28.40;54.50
44537;DHT22;30245;51.966;6.292;2023-06-22T12:52:32;28.30;54.80
44537;DHT22;30245;51.966;6.292;2023-06-22T12:54:58;28.20;55.00
44537;DHT22;30245;51.966;6.292;2023-06-22T12:57:24;28.00;55.10
44537;DHT22;30245;51.966;6.292;2023-06-22T12:59:50;28.00;55.50
44537;DHT22;30245;51.966;6.292;2023-06-22T13:02:16;28.00;55.70
44537;DHT22;30245;51.966;6.292;2023-06-22T13:04:42;28.00;55.80
44537;DHT22;30245;51.966;6.292;2023-06-22T13:07:08;28.00;56.00
44537;DHT22;30245;51.966;6.292;2023-06-22T13:09:36;27.90;56.10
44537;DHT22;30245;51.966;6.292;2023-06-22T13:12:02;27.90;56.30
44537;DHT22;30245;51.966;6.292;2023-06-22T13:14:28;27.90;56.40
44537;DHT22;30245;51.966;6.292;2023-06-22T13:16:53;27.90;56.40
44537;DHT22;30245;51.966;6.292;2023-06-22T13:19:19;27.90;56.50
44537;DHT22;30245;51.966;6.292;2023-06-22T13:21:44;27.90;56.60
44537;DHT22;30245;51.966;6.292;2023-06-22T13:24:10;27.90;56.70
44537;DHT22;30245;51.966;6.292;2023-06-22T13:26:35;27.90;56.80
44537;DHT22;30245;51.966;6.292;2023-06-22T13:29:01;27.90;56.80
44537;DHT22;30245;51.966;6.292;2023-06-22T13:31:27;27.90;56.90
44537;DHT22;30245;51.966;6.292;2023-06-22T13:33:52;27.90;56.90
44537;DHT22;30245;51.966;6.292;2023-06-22T13:36:18;27.90;57.00
44537;DHT22;30245;51.966;6.292;2023-06-22T13:38:44;27.90;57.10
44537;DHT22;30245;51.966;6.292;2023-06-22T13:41:10;27.80;57.30
44537;DHT22;30245;51.966;6.292;2023-06-22T13:43:35;27.80;57.50
44537;DHT22;30245;51.966;6.292;2023-06-22T13:46:01;27.80;57.60
44537;DHT22;30245;51.966;6.292;2023-06-22T13:48:26;28.00;57.60
44537;DHT22;30245;51.966;6.292;2023-06-22T13:50:54;28.00;57.60
44537;DHT22;30245;51.966;6.292;2023-06-22T13:53:19;28.00;57.60
44537;DHT22;30245;51.966;6.292;2023-06-22T13:55:45;28.10;57.60
44537;DHT22;30245;51.966;6.292;2023-06-22T13:58:12;28.20;57.60
44537;DHT22;30245;51.966;6.292;2023-06-22T14:00:37;28.30;57.60
44537;DHT22;30245;51.966;6.292;2023-06-22T14:03:03;28.20;57.40
44537;DHT22;30245;51.966;6.292;2023-06-22T14:05:28;28.20;57.50
44537;DHT22;30245;51.966;6.292;2023-06-22T14:07:54;28.10;57.70
44537;DHT22;30245;51.966;6.292;2023-06-22T14:10:20;28.10;57.80
44537;DHT22;30245;51.966;6.292;2023-06-22T14:12:45;28.20;58.00
44537;DHT22;30245;51.966;6.292;2023-06-22T14:15:11;28.10;57.90
44537;DHT22;30245;51.966;6.292;2023-06-22T14:17:37;28.10;58.10
44537;DHT22;30245;51.966;6.292;2023-06-22T14:20:02;28.10;58.00
44537;DHT22;30245;51.966;6.292;2023-06-22T14:22:29;28.10;58.10
44537;DHT22;30245;51.966;6.292;2023-06-22T14:24:55;28.10;58.10
44537;DHT22;30245;51.966;6.292;2023-06-22T14:27:23;28.10;58.10
44537;DHT22;30245;51.966;6.292;2023-06-22T14:29:48;28.10;58.20
44537;DHT22;30245;51.966;6.292;2023-06-22T14:32:14;28.10;58.10
44537;DHT22;30245;51.966;6.292;2023-06-22T14:34:40;28.00;58.30
44537;DHT22;30245;51.966;6.292;2023-06-22T14:37:09;27.90;58.30
44537;DHT22;30245;51.966;6.292;2023-06-22T14:39:35;27.90;58.40
44537;DHT22;30245;51.966;6.292;2023-06-22T14:42:01;27.90;58.60
44537;DHT22;30245;51.966;6.292;2023-06-22T14:44:29;27.80;58.50
44537;DHT22;30245;51.966;6.292;2023-06-22T14:46:55;27.80;58.60
44537;DHT22;30245;51.966;6.292;2023-06-22T14:49:20;27.80;58.60
44537;DHT22;30245;51.966;6.292;2023-06-22T14:51:46;27.70;58.80
44537;DHT22;30245;51.966;6.292;2023-06-22T14:54:12;27.70;59.00
44537;DHT22;30245;51.966;6.292;2023-06-22T14:56:37;27.60;59.00
44537;DHT22;30245;51.966;6.292;2023-06-22T14:59:03;27.50;59.10
44537;DHT22;30245;51.966;6.292;2023-06-22T15:01:29;27.40;59.30
44537;DHT22;30245;51.966;6.292;2023-06-22T15:03:55;27.40;59.40
44537;DHT22;30245;51.966;6.292;2023-06-22T15:06:21;27.30;59.50
44537;DHT22;30245;51.966;6.292;2023-06-22T15:08:46;27.30;59.50
44537;DHT22;30245;51.966;6.292;2023-06-22T15:11:12;27.30;59.60
44537;DHT22;30245;51.966;6.292;2023-06-22T15:13:41;27.20;59.70
44537;DHT22;30245;51.966;6.292;2023-06-22T15:16:07;27.10;59.70
44537;DHT22;30245;51.966;6.292;2023-06-22T15:18:33;27.10;59.90
44537;DHT22;30245;51.966;6.292;2023-06-22T15:21:00;27.00;60.10
44537;DHT22;30245;51.966;6.292;2023-06-22T15:23:27;26.90;60.20
44537;DHT22;30245;51.966;6.292;2023-06-22T15:25:55;26.90;60.50
44537;DHT22;30245;51.966;6.292;2023-06-22T15:28:20;26.80;60.60
44537;DHT22;30245;51.966;6.292;2023-06-22T15:30:49;26.80;60.80